Historyczne dane pomiarowe

Dodano dane terminowe – wersja testowa.

Dane z okresu 1951-2019

Wersja bazy: 1.34 [2019-03-16, lista zmian], aktualizacja planowana na 2019-04-15

Dane meteo z obszaru Polski uzyskane na podstawie danych udostępnionych przez Instytut Meteorologii i Gospodarki Wodnej – Państwowy Instytut Badawczy.

 

Wybierz Datę:    

       

TemperaturaWilgotnośćWiatrCiśnienieOpadyŚniegCzas trwania zjawisk
 Stacja t tx tn tng RH VA  wxwx mslp ppp RRR   cm mm wxwxwxwxwxwxwx
1983-08-14 10.0 13.6 6.8 7.1 82.8- 4.3 1.0---- 0.0------------
1983-08-13 12.6 17.2 9.4 10.0 84.8- 7.7 2.3---- 8.3------------
1983-08-12 15.7 21.5 10.6 10.0 84.5- 2.0 1.0---- 0.2------------
1983-08-11 14.7 20.4 10.4 7.5 86.5- 3.0 1.3---- 1.2------------
1983-08-10 14.3 20.0 9.9 7.5 84.3- 2.3 1.0---- 0.0------------
1983-08-09 14.8 21.0 10.9 9.0 84.5- 5.0 1.0---- 27.6------------
1983-08-08 14.7 17.6 9.7 10.0 86.5- 6.7 1.0---- 8.8------------
1983-08-07 11.5 13.7 9.7 8.5 92.8- 8.0 1.0---- 8.4------------
1983-08-06 11.3 15.2 7.7 6.1 89.5- 8.0 0.7---- 3.0------------
1983-08-05 9.3 12.1 6.7 5.9 91.8- 7.0 0.3---- 0.0------------
1983-08-04 8.9 15.0 7.9 8.5 92.3- 8.0 1.3---- 6.1------------
1983-08-03 16.8 22.2 14.5 14.5 83.0- 6.0 0.7---- 6.2------------
1983-08-02 16.2 25.0 10.7 8.0 85.0- 7.3 0.7---- 4.8------------
1983-08-01 17.4 26.9 6.5 5.5 81.0- 0.0 0.7---- 0.0------------
1983-07-31 15.1 21.6 7.8 4.7 77.3- 0.0 0.7---- 0.0------------
1983-07-30 15.0 17.8 10.9 11.0 81.0- 4.3 1.0---- 0.0------------
1983-07-29 16.1 20.5 10.9 10.5 78.5- 3.0 0.7---- 0.3------------
1983-07-28 20.6 25.0 14.9 14.0 69.5- 4.7 1.0---- 0.0------------
1983-07-27 19.9 27.2 10.9 10.0 75.3- 4.3 0.7---- 0.0------------
1983-07-26 17.0 22.0 11.1 10.5 73.5- 5.0 1.0---- 0.0------------
1983-07-25 14.2 17.9 9.9 8.0 72.0- 4.0 1.0---- 0.0------------
1983-07-24 15.3 20.5 8.6 7.7 83.3- 3.3 1.0---- 0.0------------
1983-07-23 13.6 16.4 10.7 10.8 87.5- 6.0 0.7---- 0.0------------
1983-07-22 9.4 11.7 4.0 0.7 83.5- 8.0 1.3---- 9.5------------
1983-07-21 8.4 11.6 4.9 2.5 94.0- 6.0 1.0---- 0.9------------
1983-07-20 15.1 22.5 10.1 9.4 84.5- 7.3 1.3---- 2.1------------
1983-07-19 19.8 26.1 11.5 11.6 72.8- 2.7 1.0---- 0.2------------
1983-07-18 18.8 26.3 12.9 10.0 74.3- 0.7 1.0---- 0.4------------
1983-07-17 18.1 23.0 11.3 8.5 72.8- 1.7 0.7---- 0.0------------
1983-07-16 16.3 22.7 9.8 7.1 76.5- 1.3 0.7---- 0.0------------
1983-07-15 16.3 19.6 12.1 9.5 85.0- 3.0 1.0---- 0.0------------
1983-07-14 13.3 17.8 11.4 8.7 97.3- 8.0 1.7---- 67.3------------
1983-07-13 15.5 20.0 11.4 11.5 84.0- 5.7 1.3---- 8.5------------
1983-07-12 13.4 18.0 11.4 10.6 79.0- 7.3 1.7---- 44.9------------
1983-07-11 15.6 20.2 11.1 8.0 83.0- 4.3 0.7---- 11.1------------
1983-07-10 18.2 23.4 11.4 8.4 71.3- 3.0 0.7---- 0.0------------
1983-07-09 17.0 22.5 7.5 4.6 68.0- 1.0 1.0---- 0.0------------
1983-07-08 17.2 22.2 9.7 9.2 73.8- 0.0 1.0---- 0.0------------
1983-07-07 18.6 24.5 11.4 9.5 80.3- 1.7 1.0---- 0.0------------
1983-07-06 17.0 23.9 10.1 7.3 71.0- 1.3 1.0---- 0.0------------
1983-07-05 16.4 22.4 8.4 6.1 73.8- 3.3 1.0---- 0.0------------
1983-07-04 15.9 21.5 8.4 6.1 74.0- 1.0 1.3---- 0.0------------
1983-07-03 16.3 19.8 11.9 10.4 67.0- 5.0 1.0---- 0.0------------
1983-07-02 14.7 17.6 11.9 9.4 82.0- 8.0 1.0---- 0.0------------
1983-07-01 16.0 21.5 4.5 6.7 70.0- 4.0 1.0---- 4.4------------
1983-06-30 13.3 19.5 4.5 1.7 88.8- 0.0 1.3---- 0.0------------
1983-06-29 10.3 15.1 7.5 7.1 77.0- 7.0 1.0---- 0.0------------
1983-06-28 12.4 16.2 10.9 9.4 95.0- 8.0 0.7---- 5.9------------
1983-06-27 16.6 23.2 10.1 7.6 71.0- 5.7 2.0---- 13.5------------
1983-06-26 17.8 22.7 10.3 9.8 71.0- 8.0 1.3---- 12.2------------
1983-06-25 16.0 23.0 7.9 7.1 71.0- 1.0 1.3---- 0.0------------
1983-06-24 14.6 21.5 5.0 4.3 63.5- 1.0 1.3---- 0.0------------
1983-06-23 11.3 18.0 1.6 -1.3 90.5- 0.0 1.3---- 0.0------------
1983-06-22 12.5 17.2 7.4 5.1 90.0- 4.0 1.7---- 0.0------------
1983-06-21 15.9 20.7 10.4 8.0 80.3- 3.3 1.0---- 0.0------------
1983-06-20 13.6 15.1 11.1 9.5 94.0- 7.7 0.7---- 4.6------------
1983-06-19 10.3 13.3 7.9 8.0 89.5- 8.0 1.3---- 49.4------------
1983-06-18 7.6 9.6 6.5 6.1 87.5- 8.0 1.0---- 28.6------------
1983-06-17 7.1 8.5 6.4 6.3 95.0- 8.0 0.7---- 19.5------------
1983-06-16 6.7 10.3 5.5 5.5 93.0- 8.0 1.0---- 17.4------------
1139.1 ms

 

Źródłem pochodzenia danych jest Instytut Meteorologii i Gospodarki Wodnej – Państwowy Instytut Badawczy. Dane Instytutu Meteorologii i Gospodarki Wodnej – Państwowego Instytutu Badawczego zostały przetworzone.

Dane źródłowe można odnaleźć na stronie https://dane.imgw.pl